Latest Weather Observations for Melbourne

IDV60801

Issued at 1:05 pm EST Friday 25 April 2014 (issued every 30 minutes, with the page automatically refreshed every 10 minutes)

About weather observations | Map of weather stations | Latest weather observations for VIC | Other Formats
Station Details ID: 086071 Name: MELBOURNE REGIONAL OFFICE Lat: -37.81 Lon: 144.97 Height: 31.15 m
Data from the previous 72 hours. | See also: Recent months at Melbourne

* Apparent temperature (App Temp) for Melbourne is calculated using temperature observations collected at Melbourne and wind observations collected at Essendon Airport, as wind observations are not currently provided for Melbourne.

Date/Time
EST
Temp
°C
App
Temp
°C
Dew
Point
Rel
Hum
%
Delta-T
°C
Wind Press
QNH
hPa
Press
MSL
hPa
Rain
since 9 am
mm
Dir
 
Spd
km/h
Gust
km/h
Spd
kts
Gust
kts
25/01:00pm 18.6 12.0 4.3 38 6.8 - 28 - 15 - 1015.6 - 0.0
25/12:30pm 17.6 11.9 5.1 43 6.0 - 24 - 13 - 1016.4 - 0.0
25/12:00pm 16.8 11.8 4.5 44 5.8 - 20 - 11 - 1017.2 1017.2 0.0
25/11:30am 14.6 10.4 3.9 48 4.9 - 15 - 8 - 1018.0 - 0.0
25/11:00am 14.0 10.8 5.0 54 4.2 - 11 - 6 - 1018.5 - 0.0
25/10:30am 13.4 11.0 4.2 53 4.2 - 6 - 3 - 1018.9 - 0.0
25/10:00am 11.4 8.5 4.8 64 3.0 - 9 - 5 - 1019.4 - 0.0
25/09:30am 9.9 7.5 4.5 69 2.4 - 6 - 3 - 1020.1 - 0.0
25/09:00am 9.0 6.5 5.0 76 1.8 - 7 - 4 - 1020.5 1020.5 0.0
25/08:30am 8.1 5.8 4.7 79 1.5 - 6 - 3 - 1020.7 - 0.0
25/08:00am 7.3 4.8 4.8 84 1.1 - 7 - 4 - 1020.8 - 0.0
25/07:30am 6.6 3.8 5.0 89 0.7 - 9 - 5 - 1020.9 - 0.0
25/07:00am 6.7 4.8 5.1 89 0.7 - 4 - 2 - 1020.7 - 0.0
25/06:30am 6.6 5.5 5.0 89 0.7 CALM 0 - 0 - 1021.0 - 0.0
25/06:00am 6.8 4.5 5.0 88 0.8 - 6 - 3 - 1021.1 1021.1 0.0
25/05:30am 7.4 4.7 5.4 87 0.9 - 9 - 5 - 1020.8 - 0.0
25/05:00am 7.6 4.4 5.3 85 1.0 - 11 - 6 - 1020.6 - 0.0
25/04:30am 8.1 5.3 5.2 82 1.3 - 9 - 5 - 1020.5 - 0.0
25/04:00am 8.0 5.6 5.3 83 1.2 - 7 - 4 - 1020.5 - 0.0
25/03:30am 8.8 6.4 5.2 78 1.6 - 7 - 4 - 1020.6 - 0.0
25/03:00am 9.2 6.1 5.4 77 1.7 - 11 - 6 - 1020.9 1020.9 0.0
25/02:30am 9.4 6.7 5.7 78 1.7 - 9 - 5 - 1020.8 - 0.0
25/02:00am 9.8 7.5 5.6 75 1.9 - 7 - 4 - 1020.9 - 0.0
25/01:30am 10.4 8.1 5.6 72 2.2 - 7 - 4 - 1021.1 - 0.0
25/01:00am 11.5 8.8 5.4 66 2.8 - 9 - 5 - 1020.9 - 0.0
25/12:30am 12.5 9.8 5.4 62 3.3 - 9 - 5 - 1021.2 - 0.0
25/12:00am 12.9 11.8 5.1 59 3.6 CALM 0 - 0 - 1021.4 1021.4 0.0
 
Date/Time
EST
Temp
°C
App
Temp
°C
Dew
Point
Rel
Hum
%
Delta-T
°C
Wind Press
QNH
hPa
Press
MSL
hPa
Rain
since 9 am
mm
Dir
 
Spd
km/h
Gust
km/h
Spd
kts
Gust
kts
24/11:30pm 12.9 10.4 4.6 57 3.8 - 7 - 4 - 1021.6 - 0.0
24/11:00pm 13.0 10.4 4.4 56 3.9 - 7 - 4 - 1021.6 - 0.0
24/10:30pm 13.3 10.3 4.0 53 4.2 - 9 - 5 - 1021.6 - 0.0
24/10:00pm 13.5 10.1 4.0 52 4.3 - 11 - 6 - 1021.6 - 0.0
24/09:30pm 13.5 10.2 4.6 55 4.1 - 11 - 6 - 1021.5 - 0.0
24/09:00pm 13.6 9.6 4.7 55 4.1 - 15 - 8 - 1021.2 1021.2 0.0
24/08:30pm 13.8 9.7 4.4 53 4.3 - 15 - 8 - 1021.0 - 0.0
24/08:00pm 13.9 10.8 5.4 56 4.0 - 11 - 6 - 1020.7 - 0.0
24/07:30pm 14.1 10.6 5.4 56 4.1 - 13 - 7 - 1020.3 - 0.0
24/07:00pm 14.3 10.1 5.6 56 4.1 - 17 - 9 - 1020.1 - 0.0
24/06:30pm 14.5 11.1 5.9 56 4.1 - 13 - 7 - 1019.7 - 0.0
24/06:00pm 14.4 10.6 6.0 57 4.0 - 15 - 8 - 1019.4 1019.4 0.0
24/05:30pm 14.4 9.9 6.0 57 4.0 - 19 - 10 - 1018.9 - 0.0
24/05:00pm 14.5 9.5 6.4 58 3.9 - 22 - 12 - 1018.5 - 0.0
24/04:30pm 15.5 10.8 5.9 52 4.6 - 20 - 11 - 1018.2 - 0.0
24/04:00pm 16.7 11.9 4.6 44 5.7 - 19 - 10 - 1017.9 - 0.0
24/03:30pm 17.2 11.5 3.0 38 6.5 - 22 - 12 - 1017.7 - 0.0
24/03:00pm 18.0 12.8 2.4 35 7.1 - 19 - 10 - 1017.4 1017.4 0.0
24/02:30pm 17.3 11.5 0.2 31 7.4 - 20 - 11 - 1017.3 - 0.0
24/02:00pm 17.9 12.0 1.9 34 7.2 - 22 - 12 - 1017.2 - 0.0
24/01:30pm 18.1 11.9 2.3 34 7.2 - 24 - 13 - 1017.2 - 0.0
24/01:00pm 18.3 11.6 3.9 38 6.8 - 28 - 15 - 1017.2 - 0.0
24/12:30pm 16.9 9.6 4.6 44 5.8 - 32 - 17 - 1017.2 - 0.0
24/12:00pm 18.1 13.2 5.0 42 6.3 - 20 - 11 - 1017.1 1017.1 0.0
24/11:30am 17.0 10.3 3.9 41 6.1 - 28 - 15 - 1017.0 - 0.0
24/11:00am 16.8 10.5 5.9 48 5.3 - 28 - 15 - 1016.7 - 0.0
24/10:30am 16.9 11.2 8.3 57 4.4 - 28 - 15 - 1016.3 - 0.0
24/10:00am 15.7 10.3 9.5 66 3.2 - 28 - 15 - 1016.1 - 0.0
24/09:30am 15.3 11.8 11.0 75 2.3 - 20 - 11 - 1015.6 - 0.0
24/09:00am 14.0 10.2 11.2 83 1.5 - 22 - 12 - 1015.2 1015.1 0.6
24/08:30am 13.8 10.0 11.0 83 1.5 - 22 - 12 - - - 0.6
24/08:00am 15.1 11.2 6.9 58 4.0 - 17 - 9 - 1013.2 - 0.2
24/07:30am 14.7 9.9 4.9 52 4.6 - 19 - 10 - 1012.4 - 0.2
24/07:00am 14.9 10.0 4.3 49 4.9 - 19 - 10 - 1012.1 - 0.2
24/06:30am 13.9 8.5 4.3 52 4.4 - 22 - 12 - 1011.9 - 0.2
24/06:00am 13.3 7.1 4.1 53 4.2 - 26 - 14 - 1011.7 1011.6 0.2
24/05:30am 12.7 7.8 4.9 59 3.6 - 20 - 11 - 1011.1 - 0.2
24/05:00am 13.4 8.3 4.2 53 4.2 - 20 - 11 - 1010.8 - 0.2
24/04:30am 13.8 8.3 3.9 51 4.5 - 22 - 12 - 1010.5 - 0.2
24/04:00am 14.2 9.6 3.6 49 4.8 - 17 - 9 - 1010.6 - 0.2
24/03:30am 14.7 11.2 3.5 47 5.1 - 11 - 6 - 1010.7 - 0.2
24/03:00am 15.0 10.4 3.6 46 5.2 - 17 - 9 - 1010.6 1010.6 0.2
24/02:30am 15.1 10.9 3.8 46 5.2 - 15 - 8 - 1011.0 - 0.2
24/02:00am 15.3 11.5 4.1 47 5.2 - 13 - 7 - 1011.3 - 0.2
24/01:30am 15.1 11.0 4.3 48 5.0 - 15 - 8 - 1011.5 - 0.2
24/01:00am 15.3 11.5 4.1 47 5.2 - 13 - 7 - 1011.8 - 0.2
24/12:30am 14.9 10.4 4.3 49 4.9 - 17 - 9 - 1011.9 - 0.2
24/12:00am 14.5 10.6 5.4 54 4.3 - 15 - 8 - 1012.2 1012.1 0.2
 
Date/Time
EST
Temp
°C
App
Temp
°C
Dew
Point
Rel
Hum
%
Delta-T
°C
Wind Press
QNH
hPa
Press
MSL
hPa
Rain
since 9 am
mm
Dir
 
Spd
km/h
Gust
km/h
Spd
kts
Gust
kts
23/11:30pm 15.0 11.4 4.8 50 4.8 - 13 - 7 - 1012.5 - 0.2
23/11:00pm 15.1 11.8 4.6 49 4.9 - 11 - 6 - 1012.9 - 0.2
23/10:30pm 15.4 12.6 5.3 51 4.8 - 9 - 5 - 1013.1 - 0.2
23/10:00pm 15.7 12.8 4.9 48 5.1 - 9 - 5 - 1013.3 - 0.2
23/09:30pm 15.8 12.6 5.3 49 5.0 - 11 - 6 - 1013.4 - 0.2
23/09:00pm 15.8 12.6 6.9 55 4.4 - 13 - 7 - 1013.3 1013.2 0.2
23/08:30pm 16.4 13.4 5.9 50 5.1 - 11 - 6 - 1013.3 - 0.2
23/08:00pm 16.5 14.2 7.5 55 4.5 - 9 - 5 - 1013.3 - 0.2
23/07:30pm 16.0 13.9 9.7 66 3.3 - 11 - 6 - 1013.4 - 0.2
23/07:00pm 15.8 14.4 9.4 65 3.3 - 7 - 4 - 1013.0 - 0.2
23/06:30pm 15.9 14.4 9.3 65 3.4 - 7 - 4 - 1013.0 - 0.2
23/06:00pm 16.7 16.5 9.0 60 4.0 CALM 0 - 0 - 1013.0 1012.9 0.2
23/05:30pm 17.2 15.3 8.9 58 4.3 - 9 - 5 - 1013.1 - 0.2
23/05:00pm 18.0 16.0 8.5 53 4.9 - 9 - 5 - 1013.1 - 0.2
23/04:30pm 18.3 16.1 7.9 50 5.3 - 9 - 5 - 1013.3 - 0.2
23/04:00pm 17.8 16.4 8.7 55 4.7 - 6 - 3 - 1013.3 - 0.2
23/03:30pm 18.1 16.6 9.3 56 4.6 - 7 - 4 - 1013.4 - 0.2
23/03:00pm 18.2 16.6 8.8 54 4.9 - 7 - 4 - 1013.4 1013.3 0.2
23/02:30pm 17.9 16.0 9.1 56 4.6 - 9 - 5 - 1013.6 - 0.2
23/02:00pm 17.9 15.8 9.8 59 4.3 - 11 - 6 - 1013.9 - 0.2
23/01:30pm 19.2 17.8 9.6 53 5.1 - 7 - 4 - 1014.3 - 0.2
23/01:00pm 17.5 15.4 8.3 54 4.7 - 9 - 5 - 1014.9 - 0.2
23/12:30pm 18.6 15.6 7.8 49 5.5 - 13 - 7 - 1015.4 - 0.0
23/12:00pm 18.3 16.7 8.6 53 5.0 - 7 - 4 - 1015.8 1015.7 0.0
23/11:30am 17.1 15.7 8.7 57 4.3 - 6 - 3 - 1016.1 - 0.0
23/11:00am 16.5 15.3 9.4 63 3.7 - 6 - 3 - 1016.2 - 0.0
23/10:30am 15.9 13.6 9.1 64 3.5 - 11 - 6 - 1016.9 - 0.0
23/10:00am 15.1 12.7 8.6 65 3.3 - 11 - 6 - 1016.9 - 0.0
23/09:30am 13.9 11.1 8.5 70 2.7 - 13 - 7 - 1017.2 - 0.0
23/09:00am 13.2 10.4 8.6 73 2.3 - 13 - 7 - 1017.1 1017.1 6.0
23/08:30am 13.0 11.0 8.8 75 2.1 - 9 - 5 - 1016.7 - 6.0
23/08:00am 12.3 10.5 9.3 82 1.5 - 9 - 5 - 1016.7 - 6.0
23/07:30am 12.3 10.1 9.3 82 1.5 - 11 - 6 - 1016.5 - 6.0
23/07:00am 12.3 10.5 9.3 82 1.5 - 9 - 5 - 1016.2 - 6.0
23/06:30am 12.4 10.6 9.4 82 1.5 - 9 - 5 - 1016.2 - 6.0
23/06:00am 12.6 10.9 9.9 83 1.4 - 9 - 5 - 1016.5 1016.4 6.0
23/05:30am 12.9 11.7 10.4 85 1.3 - 7 - 4 - 1016.2 - 6.0
23/05:00am 13.2 11.4 10.9 86 1.2 - 11 - 6 - 1016.2 - 6.0
23/04:30am 13.2 12.2 10.9 86 1.2 - 7 - 4 - 1016.1 - 6.0
23/04:00am 13.2 11.6 10.3 82 1.5 - 9 - 5 - 1016.0 - 6.0
23/03:30am 14.0 12.5 10.6 80 1.8 - 9 - 5 - 1016.1 - 6.0
23/03:00am 13.8 13.1 11.9 88 1.0 - 7 - 4 - 1016.2 1016.1 6.0
23/02:30am 14.0 12.9 12.0 88 1.1 - 9 - 5 - 1016.5 - 6.0
23/02:00am 14.0 13.2 11.6 85 1.3 - 7 - 4 - 1016.6 - 6.0
23/01:30am 14.2 13.3 11.2 82 1.6 - 7 - 4 - 1017.0 - 6.0
23/01:00am 13.9 13.0 11.5 85 1.3 - 7 - 4 - 1017.0 - 6.0
23/12:30am 14.1 14.4 10.9 81 1.7 CALM 0 - 0 - 1017.2 - 6.0
23/12:00am 14.6 14.8 10.6 77 2.1 CALM 0 - 0 - 1017.3 1017.3 6.0
 
Date/Time
EST
Temp
°C
App
Temp
°C
Dew
Point
Rel
Hum
%
Delta-T
°C
Wind Press
QNH
hPa
Press
MSL
hPa
Rain
since 9 am
mm
Dir
 
Spd
km/h
Gust
km/h
Spd
kts
Gust
kts
22/11:30pm 14.4 14.9 11.6 83 1.5 CALM 0 - 0 - 1017.4 - 6.0
22/11:00pm 14.6 15.2 12.0 84 1.4 CALM 0 - 0 - 1017.7 - 6.0
22/10:30pm 14.7 14.6 12.1 84 1.4 - 4 - 2 - 1017.9 - 6.0
22/10:00pm 14.8 15.6 12.4 85 1.3 CALM 0 - 0 - 1018.0 - 6.0
22/09:30pm 14.4 14.8 12.6 89 1.0 - 2 - 1 - 1017.7 - 6.0
22/09:00pm 14.4 13.6 12.8 90 0.9 - 9 - 5 - 1017.4 1017.4 6.0
22/08:30pm 14.8 12.9 11.8 82 1.6 - 13 - 7 - 1017.2 - 6.0
22/08:00pm 14.3 11.9 12.7 90 0.9 - 17 - 9 - 1017.2 - 6.0
22/07:30pm 14.5 13.9 13.4 93 0.6 - 9 - 5 - 1016.9 - 6.0
22/07:00pm 14.7 14.3 14.0 96 0.4 - 9 - 5 - 1016.6 - 6.0
22/06:30pm 15.0 14.4 13.6 91 0.8 - 9 - 5 - 1016.3 - 6.0
22/06:00pm 14.8 14.7 13.9 94 0.5 - 7 - 4 - 1016.0 1015.9 6.0
22/05:30pm 15.0 14.9 13.9 93 0.6 - 7 - 4 - 1015.7 - 5.8
22/05:00pm 14.9 16.2 14.2 96 0.4 CALM 0 - 0 - 1015.4 - 4.8
22/04:30pm 15.0 15.1 13.9 93 0.6 - 6 - 3 - 1015.3 - 4.4
22/04:00pm 15.2 14.3 13.8 91 0.8 - 11 - 6 - 1015.0 - 3.6
22/03:30pm 16.6 17.1 12.8 78 2.1 - 2 - 1 - 1014.9 - 2.8
22/03:00pm 16.6 16.9 12.2 75 2.4 - 2 - 1 - 1014.4 1014.3 2.8
22/02:30pm 16.3 14.9 12.1 76 2.3 - 11 - 6 - 1014.3 - 2.8
22/02:00pm 16.1 15.3 12.9 81 1.8 - 9 - 5 - 1014.2 - 2.8
22/01:30pm 15.8 14.1 12.3 80 1.9 - 13 - 7 - 1014.3 - 2.8

Other Formats:

Comma delimited format used in spreadsheet applications
http://www.bom.gov.au/fwo/IDV60801/IDV60801.94868.axf

JavaScript Object Notation format (JSON) in row-major order
http://www.bom.gov.au/fwo/IDV60801/IDV60801.94868.json